sensor_id;sensor_type;location;lat;lon;timestamp;P1;durP1;ratioP1;P2;durP2;ratioP2
18867;SDS011;9563;49.240;9.088;2022-10-16T00:00:39;2.45;;;0.90;;
18867;SDS011;9563;49.240;9.088;2022-10-16T00:03:07;6.25;;;1.13;;
18867;SDS011;9563;49.240;9.088;2022-10-16T00:05:37;1.55;;;0.98;;
18867;SDS011;9563;49.240;9.088;2022-10-16T00:08:05;3.03;;;0.90;;
18867;SDS011;9563;49.240;9.088;2022-10-16T00:10:32;1.42;;;0.75;;
18867;SDS011;9563;49.240;9.088;2022-10-16T00:13:01;2.60;;;0.80;;
18867;SDS011;9563;49.240;9.088;2022-10-16T00:15:28;0.70;;;0.68;;
18867;SDS011;9563;49.240;9.088;2022-10-16T00:17:55;4.50;;;1.17;;
18867;SDS011;9563;49.240;9.088;2022-10-16T00:20:22;3.55;;;1.30;;
18867;SDS011;9563;49.240;9.088;2022-10-16T00:22:49;3.42;;;1.30;;
18867;SDS011;9563;49.240;9.088;2022-10-16T00:25:15;5.85;;;1.65;;
18867;SDS011;9563;49.240;9.088;2022-10-16T00:27:42;5.63;;;1.48;;
18867;SDS011;9563;49.240;9.088;2022-10-16T00:30:11;2.03;;;1.40;;
18867;SDS011;9563;49.240;9.088;2022-10-16T00:32:37;2.15;;;1.30;;
18867;SDS011;9563;49.240;9.088;2022-10-16T00:35:05;2.22;;;1.40;;
18867;SDS011;9563;49.240;9.088;2022-10-16T00:37:32;1.75;;;1.38;;
18867;SDS011;9563;49.240;9.088;2022-10-16T00:39:59;3.25;;;1.30;;
18867;SDS011;9563;49.240;9.088;2022-10-16T00:42:26;2.42;;;1.17;;
18867;SDS011;9563;49.240;9.088;2022-10-16T00:44:54;0.85;;;0.85;;
18867;SDS011;9563;49.240;9.088;2022-10-16T00:47:26;3.42;;;1.00;;
18867;SDS011;9563;49.240;9.088;2022-10-16T00:49:56;3.13;;;1.52;;
18867;SDS011;9563;49.240;9.088;2022-10-16T00:52:28;2.97;;;1.30;;
18867;SDS011;9563;49.240;9.088;2022-10-16T00:54:55;1.45;;;1.08;;
18867;SDS011;9563;49.240;9.088;2022-10-16T00:57:22;4.47;;;1.00;;
18867;SDS011;9563;49.240;9.088;2022-10-16T00:59:50;2.88;;;1.38;;
18867;SDS011;9563;49.240;9.088;2022-10-16T01:02:17;4.50;;;1.05;;
18867;SDS011;9563;49.240;9.088;2022-10-16T01:04:46;2.00;;;1.40;;
18867;SDS011;9563;49.240;9.088;2022-10-16T01:07:18;1.63;;;1.00;;
18867;SDS011;9563;49.240;9.088;2022-10-16T01:09:55;1.35;;;0.93;;
18867;SDS011;9563;49.240;9.088;2022-10-16T01:12:34;3.17;;;0.90;;
18867;SDS011;9563;49.240;9.088;2022-10-16T01:15:08;1.35;;;1.25;;
18867;SDS011;9563;49.240;9.088;2022-10-16T01:17:41;6.28;;;1.10;;
18867;SDS011;9563;49.240;9.088;2022-10-16T01:20:14;2.92;;;1.20;;
18867;SDS011;9563;49.240;9.088;2022-10-16T01:22:56;4.88;;;1.70;;
18867;SDS011;9563;49.240;9.088;2022-10-16T01:25:35;2.58;;;1.42;;
18867;SDS011;9563;49.240;9.088;2022-10-16T01:28:13;3.35;;;1.40;;
18867;SDS011;9563;49.240;9.088;2022-10-16T01:30:42;4.30;;;1.33;;
18867;SDS011;9563;49.240;9.088;2022-10-16T01:33:13;3.47;;;1.45;;
18867;SDS011;9563;49.240;9.088;2022-10-16T01:35:44;1.70;;;1.08;;
18867;SDS011;9563;49.240;9.088;2022-10-16T01:38:15;3.25;;;1.35;;
18867;SDS011;9563;49.240;9.088;2022-10-16T01:40:46;2.33;;;1.25;;
18867;SDS011;9563;49.240;9.088;2022-10-16T01:43:19;2.33;;;1.13;;
18867;SDS011;9563;49.240;9.088;2022-10-16T01:45:48;3.20;;;1.10;;
18867;SDS011;9563;49.240;9.088;2022-10-16T01:48:17;1.40;;;0.70;;
18867;SDS011;9563;49.240;9.088;2022-10-16T01:50:49;8.05;;;1.30;;
18867;SDS011;9563;49.240;9.088;2022-10-16T01:53:20;1.23;;;1.05;;
18867;SDS011;9563;49.240;9.088;2022-10-16T01:55:48;2.53;;;1.10;;
18867;SDS011;9563;49.240;9.088;2022-10-16T01:58:19;1.70;;;1.10;;
18867;SDS011;9563;49.240;9.088;2022-10-16T02:00:47;1.70;;;1.13;;
18867;SDS011;9563;49.240;9.088;2022-10-16T02:03:16;3.38;;;0.90;;
18867;SDS011;9563;49.240;9.088;2022-10-16T02:05:46;1.23;;;0.77;;
18867;SDS011;9563;49.240;9.088;2022-10-16T02:08:15;2.80;;;1.00;;
18867;SDS011;9563;49.240;9.088;2022-10-16T02:10:43;2.17;;;1.00;;
18867;SDS011;9563;49.240;9.088;2022-10-16T02:13:10;2.67;;;1.17;;
18867;SDS011;9563;49.240;9.088;2022-10-16T02:15:41;1.63;;;1.10;;
18867;SDS011;9563;49.240;9.088;2022-10-16T02:18:08;5.43;;;1.30;;
18867;SDS011;9563;49.240;9.088;2022-10-16T02:20:37;2.78;;;1.23;;
18867;SDS011;9563;49.240;9.088;2022-10-16T02:23:10;1.23;;;1.13;;
18867;SDS011;9563;49.240;9.088;2022-10-16T02:25:41;1.48;;;0.98;;
18867;SDS011;9563;49.240;9.088;2022-10-16T02:28:13;7.43;;;1.00;;
18867;SDS011;9563;49.240;9.088;2022-10-16T02:30:45;1.40;;;1.05;;
18867;SDS011;9563;49.240;9.088;2022-10-16T02:33:16;3.85;;;0.90;;
18867;SDS011;9563;49.240;9.088;2022-10-16T02:35:46;1.80;;;1.10;;
18867;SDS011;9563;49.240;9.088;2022-10-16T02:38:15;1.73;;;0.90;;
18867;SDS011;9563;49.240;9.088;2022-10-16T02:40:43;2.75;;;0.80;;
18867;SDS011;9563;49.240;9.088;2022-10-16T02:43:10;1.67;;;1.10;;
18867;SDS011;9563;49.240;9.088;2022-10-16T02:45:37;3.20;;;0.90;;
18867;SDS011;9563;49.240;9.088;2022-10-16T02:48:06;2.17;;;1.05;;
18867;SDS011;9563;49.240;9.088;2022-10-16T02:50:33;4.30;;;1.17;;
18867;SDS011;9563;49.240;9.088;2022-10-16T02:53:00;1.85;;;1.13;;
18867;SDS011;9563;49.240;9.088;2022-10-16T02:55:27;3.25;;;0.90;;
18867;SDS011;9563;49.240;9.088;2022-10-16T02:57:54;1.85;;;1.00;;
18867;SDS011;9563;49.240;9.088;2022-10-16T03:00:21;3.70;;;1.02;;
18867;SDS011;9563;49.240;9.088;2022-10-16T03:02:48;1.35;;;1.00;;
18867;SDS011;9563;49.240;9.088;2022-10-16T03:05:16;0.98;;;0.88;;
18867;SDS011;9563;49.240;9.088;2022-10-16T03:07:43;1.58;;;1.00;;
18867;SDS011;9563;49.240;9.088;2022-10-16T03:10:10;2.63;;;1.00;;
18867;SDS011;9563;49.240;9.088;2022-10-16T03:12:37;2.78;;;1.10;;
18867;SDS011;9563;49.240;9.088;2022-10-16T03:15:04;1.23;;;1.00;;
18867;SDS011;9563;49.240;9.088;2022-10-16T03:17:32;2.28;;;1.08;;
18867;SDS011;9563;49.240;9.088;2022-10-16T03:19:59;1.02;;;0.93;;
18867;SDS011;9563;49.240;9.088;2022-10-16T03:22:28;2.97;;;1.20;;
18867;SDS011;9563;49.240;9.088;2022-10-16T03:24:54;2.03;;;1.13;;
18867;SDS011;9563;49.240;9.088;2022-10-16T03:27:22;3.08;;;1.08;;
18867;SDS011;9563;49.240;9.088;2022-10-16T03:29:48;1.63;;;1.10;;
18867;SDS011;9563;49.240;9.088;2022-10-16T03:32:15;2.90;;;0.95;;
18867;SDS011;9563;49.240;9.088;2022-10-16T03:34:43;3.95;;;1.58;;
18867;SDS011;9563;49.240;9.088;2022-10-16T03:37:10;7.35;;;1.55;;
18867;SDS011;9563;49.240;9.088;2022-10-16T03:39:38;2.03;;;1.30;;
18867;SDS011;9563;49.240;9.088;2022-10-16T03:42:05;2.10;;;1.13;;
18867;SDS011;9563;49.240;9.088;2022-10-16T03:44:32;2.92;;;1.33;;
18867;SDS011;9563;49.240;9.088;2022-10-16T03:46:59;5.25;;;1.48;;
18867;SDS011;9563;49.240;9.088;2022-10-16T03:49:26;2.53;;;1.58;;
18867;SDS011;9563;49.240;9.088;2022-10-16T03:51:52;1.75;;;1.17;;
18867;SDS011;9563;49.240;9.088;2022-10-16T03:54:19;3.88;;;1.50;;
18867;SDS011;9563;49.240;9.088;2022-10-16T03:56:48;1.80;;;1.40;;
18867;SDS011;9563;49.240;9.088;2022-10-16T03:59:15;5.25;;;1.50;;
18867;SDS011;9563;49.240;9.088;2022-10-16T04:01:42;3.58;;;1.65;;
18867;SDS011;9563;49.240;9.088;2022-10-16T04:04:09;3.78;;;1.42;;
18867;SDS011;9563;49.240;9.088;2022-10-16T04:06:36;10.15;;;1.33;;
18867;SDS011;9563;49.240;9.088;2022-10-16T04:09:03;5.95;;;1.35;;
18867;SDS011;9563;49.240;9.088;2022-10-16T04:11:30;2.38;;;1.27;;
18867;SDS011;9563;49.240;9.088;2022-10-16T04:13:59;1.50;;;1.20;;
18867;SDS011;9563;49.240;9.088;2022-10-16T04:16:26;7.32;;;1.15;;
18867;SDS011;9563;49.240;9.088;2022-10-16T04:18:53;1.80;;;1.02;;
18867;SDS011;9563;49.240;9.088;2022-10-16T04:21:20;1.60;;;1.20;;
18867;SDS011;9563;49.240;9.088;2022-10-16T04:23:47;1.65;;;1.02;;
18867;SDS011;9563;49.240;9.088;2022-10-16T04:26:14;1.63;;;1.10;;
18867;SDS011;9563;49.240;9.088;2022-10-16T04:28:41;2.22;;;1.30;;
18867;SDS011;9563;49.240;9.088;2022-10-16T04:31:10;1.60;;;1.00;;
18867;SDS011;9563;49.240;9.088;2022-10-16T04:33:37;5.90;;;1.70;;
18867;SDS011;9563;49.240;9.088;2022-10-16T04:36:04;2.03;;;1.08;;
18867;SDS011;9563;49.240;9.088;2022-10-16T04:38:31;2.25;;;1.23;;
18867;SDS011;9563;49.240;9.088;2022-10-16T04:40:58;1.30;;;1.05;;
18867;SDS011;9563;49.240;9.088;2022-10-16T04:43:25;3.80;;;1.38;;
18867;SDS011;9563;49.240;9.088;2022-10-16T04:45:52;3.42;;;1.20;;
18867;SDS011;9563;49.240;9.088;2022-10-16T04:48:21;2.95;;;1.35;;
18867;SDS011;9563;49.240;9.088;2022-10-16T04:50:47;1.65;;;0.98;;
18867;SDS011;9563;49.240;9.088;2022-10-16T04:53:15;3.30;;;1.00;;
18867;SDS011;9563;49.240;9.088;2022-10-16T04:55:41;3.35;;;1.30;;
18867;SDS011;9563;49.240;9.088;2022-10-16T04:58:09;6.32;;;1.40;;
18867;SDS011;9563;49.240;9.088;2022-10-16T05:00:36;3.13;;;1.23;;
18867;SDS011;9563;49.240;9.088;2022-10-16T05:03:03;2.13;;;1.17;;
18867;SDS011;9563;49.240;9.088;2022-10-16T05:05:33;3.13;;;1.35;;
18867;SDS011;9563;49.240;9.088;2022-10-16T05:08:00;7.25;;;1.25;;
18867;SDS011;9563;49.240;9.088;2022-10-16T05:10:27;3.47;;;1.25;;
18867;SDS011;9563;49.240;9.088;2022-10-16T05:12:54;4.15;;;1.42;;
18867;SDS011;9563;49.240;9.088;2022-10-16T05:15:21;4.55;;;1.15;;
18867;SDS011;9563;49.240;9.088;2022-10-16T05:17:51;4.55;;;1.80;;
18867;SDS011;9563;49.240;9.088;2022-10-16T05:20:19;4.65;;;1.50;;
18867;SDS011;9563;49.240;9.088;2022-10-16T05:22:47;2.80;;;1.40;;
18867;SDS011;9563;49.240;9.088;2022-10-16T05:25:14;4.05;;;1.42;;
18867;SDS011;9563;49.240;9.088;2022-10-16T05:27:41;2.58;;;1.30;;
18867;SDS011;9563;49.240;9.088;2022-10-16T05:30:08;3.03;;;1.60;;
18867;SDS011;9563;49.240;9.088;2022-10-16T05:32:35;6.38;;;1.92;;
18867;SDS011;9563;49.240;9.088;2022-10-16T05:35:02;4.72;;;2.05;;
18867;SDS011;9563;49.240;9.088;2022-10-16T05:37:30;20.23;;;7.32;;
18867;SDS011;9563;49.240;9.088;2022-10-16T05:39:58;19.70;;;8.07;;
18867;SDS011;9563;49.240;9.088;2022-10-16T05:42:25;21.65;;;8.32;;
18867;SDS011;9563;49.240;9.088;2022-10-16T05:44:52;11.63;;;4.10;;
18867;SDS011;9563;49.240;9.088;2022-10-16T05:47:19;13.60;;;4.68;;
18867;SDS011;9563;49.240;9.088;2022-10-16T05:49:47;13.50;;;4.05;;
18867;SDS011;9563;49.240;9.088;2022-10-16T05:52:14;7.45;;;3.92;;
18867;SDS011;9563;49.240;9.088;2022-10-16T05:54:41;7.32;;;2.90;;
18867;SDS011;9563;49.240;9.088;2022-10-16T05:57:10;9.30;;;2.60;;
18867;SDS011;9563;49.240;9.088;2022-10-16T05:59:36;3.92;;;2.03;;
18867;SDS011;9563;49.240;9.088;2022-10-16T06:02:03;4.93;;;2.38;;
18867;SDS011;9563;49.240;9.088;2022-10-16T06:04:30;2.35;;;1.70;;
18867;SDS011;9563;49.240;9.088;2022-10-16T06:06:57;2.92;;;1.88;;
18867;SDS011;9563;49.240;9.088;2022-10-16T06:09:26;5.50;;;1.85;;
18867;SDS011;9563;49.240;9.088;2022-10-16T06:11:53;2.78;;;1.80;;
18867;SDS011;9563;49.240;9.088;2022-10-16T06:14:22;3.28;;;1.35;;
18867;SDS011;9563;49.240;9.088;2022-10-16T06:16:49;8.48;;;2.83;;
18867;SDS011;9563;49.240;9.088;2022-10-16T06:19:15;5.30;;;2.40;;
18867;SDS011;9563;49.240;9.088;2022-10-16T06:21:43;5.03;;;2.05;;
18867;SDS011;9563;49.240;9.088;2022-10-16T06:24:11;3.97;;;2.33;;
18867;SDS011;9563;49.240;9.088;2022-10-16T06:26:38;2.55;;;1.80;;
18867;SDS011;9563;49.240;9.088;2022-10-16T06:29:05;3.63;;;1.50;;
18867;SDS011;9563;49.240;9.088;2022-10-16T06:31:33;5.68;;;2.10;;
18867;SDS011;9563;49.240;9.088;2022-10-16T06:34:00;8.70;;;3.72;;
18867;SDS011;9563;49.240;9.088;2022-10-16T06:36:29;8.13;;;3.40;;
18867;SDS011;9563;49.240;9.088;2022-10-16T06:38:56;6.43;;;2.80;;
18867;SDS011;9563;49.240;9.088;2022-10-16T06:41:23;7.50;;;3.05;;
18867;SDS011;9563;49.240;9.088;2022-10-16T06:43:50;6.88;;;2.40;;
18867;SDS011;9563;49.240;9.088;2022-10-16T06:46:18;3.25;;;1.80;;
18867;SDS011;9563;49.240;9.088;2022-10-16T06:48:47;2.92;;;1.67;;
18867;SDS011;9563;49.240;9.088;2022-10-16T06:51:15;2.58;;;1.65;;
18867;SDS011;9563;49.240;9.088;2022-10-16T06:53:44;4.10;;;1.60;;
18867;SDS011;9563;49.240;9.088;2022-10-16T06:56:14;2.72;;;1.63;;
18867;SDS011;9563;49.240;9.088;2022-10-16T06:58:43;5.88;;;2.35;;
18867;SDS011;9563;49.240;9.088;2022-10-16T07:01:11;4.88;;;2.13;;
18867;SDS011;9563;49.240;9.088;2022-10-16T07:03:39;7.18;;;2.70;;
18867;SDS011;9563;49.240;9.088;2022-10-16T07:06:09;16.73;;;7.03;;
18867;SDS011;9563;49.240;9.088;2022-10-16T07:08:38;17.58;;;6.88;;
18867;SDS011;9563;49.240;9.088;2022-10-16T07:11:07;11.82;;;4.07;;
18867;SDS011;9563;49.240;9.088;2022-10-16T07:13:36;5.93;;;2.90;;
18867;SDS011;9563;49.240;9.088;2022-10-16T07:16:05;7.38;;;2.08;;
18867;SDS011;9563;49.240;9.088;2022-10-16T07:18:32;7.85;;;2.08;;
18867;SDS011;9563;49.240;9.088;2022-10-16T07:21:03;5.03;;;1.55;;
18867;SDS011;9563;49.240;9.088;2022-10-16T07:23:32;3.00;;;1.45;;
18867;SDS011;9563;49.240;9.088;2022-10-16T07:25:59;2.03;;;1.27;;
18867;SDS011;9563;49.240;9.088;2022-10-16T07:28:26;5.90;;;1.60;;
18867;SDS011;9563;49.240;9.088;2022-10-16T07:30:53;4.28;;;1.33;;
18867;SDS011;9563;49.240;9.088;2022-10-16T07:33:20;4.72;;;1.33;;
18867;SDS011;9563;49.240;9.088;2022-10-16T07:35:48;1.50;;;1.30;;
18867;SDS011;9563;49.240;9.088;2022-10-16T07:38:16;1.85;;;1.20;;
18867;SDS011;9563;49.240;9.088;2022-10-16T07:40:44;2.08;;;1.40;;
18867;SDS011;9563;49.240;9.088;2022-10-16T07:43:12;2.15;;;1.35;;
18867;SDS011;9563;49.240;9.088;2022-10-16T07:45:46;4.75;;;1.30;;
18867;SDS011;9563;49.240;9.088;2022-10-16T07:48:14;2.40;;;1.50;;
18867;SDS011;9563;49.240;9.088;2022-10-16T07:50:41;2.17;;;1.30;;
18867;SDS011;9563;49.240;9.088;2022-10-16T07:53:08;1.73;;;1.30;;
18867;SDS011;9563;49.240;9.088;2022-10-16T07:55:35;1.40;;;1.10;;
18867;SDS011;9563;49.240;9.088;2022-10-16T07:58:04;4.20;;;1.40;;
18867;SDS011;9563;49.240;9.088;2022-10-16T08:00:31;2.50;;;1.13;;
18867;SDS011;9563;49.240;9.088;2022-10-16T08:02:59;4.47;;;1.30;;
18867;SDS011;9563;49.240;9.088;2022-10-16T08:05:26;9.38;;;2.00;;
18867;SDS011;9563;49.240;9.088;2022-10-16T08:07:55;2.92;;;1.42;;
18867;SDS011;9563;49.240;9.088;2022-10-16T08:10:23;3.90;;;1.50;;
18867;SDS011;9563;49.240;9.088;2022-10-16T08:12:52;2.88;;;1.05;;
18867;SDS011;9563;49.240;9.088;2022-10-16T08:15:20;1.63;;;1.02;;
18867;SDS011;9563;49.240;9.088;2022-10-16T08:17:54;2.22;;;1.30;;
18867;SDS011;9563;49.240;9.088;2022-10-16T08:20:22;2.83;;;1.15;;
18867;SDS011;9563;49.240;9.088;2022-10-16T08:22:49;3.15;;;1.10;;
18867;SDS011;9563;49.240;9.088;2022-10-16T08:25:16;3.42;;;1.20;;
18867;SDS011;9563;49.240;9.088;2022-10-16T08:27:42;1.27;;;1.08;;
18867;SDS011;9563;49.240;9.088;2022-10-16T08:30:10;4.20;;;1.20;;
18867;SDS011;9563;49.240;9.088;2022-10-16T08:32:39;1.38;;;1.05;;
18867;SDS011;9563;49.240;9.088;2022-10-16T08:35:07;1.20;;;1.05;;
18867;SDS011;9563;49.240;9.088;2022-10-16T08:37:35;4.97;;;1.77;;
18867;SDS011;9563;49.240;9.088;2022-10-16T08:40:02;3.72;;;1.10;;
18867;SDS011;9563;49.240;9.088;2022-10-16T08:42:45;6.35;;;1.67;;
18867;SDS011;9563;49.240;9.088;2022-10-16T08:48:17;3.15;;;1.20;;
18867;SDS011;9563;49.240;9.088;2022-10-16T08:50:49;4.55;;;1.10;;
18867;SDS011;9563;49.240;9.088;2022-10-16T08:53:20;4.25;;;1.30;;
18867;SDS011;9563;49.240;9.088;2022-10-16T08:55:50;4.20;;;1.20;;
18867;SDS011;9563;49.240;9.088;2022-10-16T08:58:18;3.30;;;1.30;;
18867;SDS011;9563;49.240;9.088;2022-10-16T09:00:48;2.15;;;1.60;;
18867;SDS011;9563;49.240;9.088;2022-10-16T09:03:27;3.55;;;1.25;;
18867;SDS011;9563;49.240;9.088;2022-10-16T09:06:13;3.75;;;1.10;;
18867;SDS011;9563;49.240;9.088;2022-10-16T09:08:53;4.55;;;1.20;;
18867;SDS011;9563;49.240;9.088;2022-10-16T09:11:44;2.17;;;1.10;;
18867;SDS011;9563;49.240;9.088;2022-10-16T09:14:23;2.25;;;1.33;;
18867;SDS011;9563;49.240;9.088;2022-10-16T09:17:08;1.70;;;1.10;;
18867;SDS011;9563;49.240;9.088;2022-10-16T09:19:49;3.38;;;1.13;;
18867;SDS011;9563;49.240;9.088;2022-10-16T09:22:21;5.35;;;1.00;;
18867;SDS011;9563;49.240;9.088;2022-10-16T09:24:51;2.17;;;0.85;;
18867;SDS011;9563;49.240;9.088;2022-10-16T09:27:19;1.70;;;1.20;;
18867;SDS011;9563;49.240;9.088;2022-10-16T09:29:46;2.67;;;1.30;;
18867;SDS011;9563;49.240;9.088;2022-10-16T09:32:14;1.67;;;1.00;;
18867;SDS011;9563;49.240;9.088;2022-10-16T09:34:45;2.47;;;1.10;;
18867;SDS011;9563;49.240;9.088;2022-10-16T09:37:18;2.88;;;1.20;;
18867;SDS011;9563;49.240;9.088;2022-10-16T09:39:48;4.68;;;1.00;;
18867;SDS011;9563;49.240;9.088;2022-10-16T09:42:16;4.72;;;1.38;;
18867;SDS011;9563;49.240;9.088;2022-10-16T09:44:47;5.88;;;1.10;;
18867;SDS011;9563;49.240;9.088;2022-10-16T09:47:16;1.60;;;0.98;;
18867;SDS011;9563;49.240;9.088;2022-10-16T09:49:54;2.70;;;1.23;;
18867;SDS011;9563;49.240;9.088;2022-10-16T09:52:23;3.05;;;1.25;;
18867;SDS011;9563;49.240;9.088;2022-10-16T09:54:51;3.42;;;1.15;;
18867;SDS011;9563;49.240;9.088;2022-10-16T09:57:21;2.60;;;1.35;;
18867;SDS011;9563;49.240;9.088;2022-10-16T09:59:49;3.63;;;1.00;;
18867;SDS011;9563;49.240;9.088;2022-10-16T10:02:17;2.75;;;1.23;;
18867;SDS011;9563;49.240;9.088;2022-10-16T10:04:48;2.58;;;0.90;;
18867;SDS011;9563;49.240;9.088;2022-10-16T10:07:21;2.88;;;0.98;;
18867;SDS011;9563;49.240;9.088;2022-10-16T10:09:52;2.97;;;1.20;;
18867;SDS011;9563;49.240;9.088;2022-10-16T10:12:21;5.35;;;1.17;;
18867;SDS011;9563;49.240;9.088;2022-10-16T10:14:50;7.47;;;1.13;;
18867;SDS011;9563;49.240;9.088;2022-10-16T10:17:18;3.70;;;1.40;;
18867;SDS011;9563;49.240;9.088;2022-10-16T10:19:47;3.47;;;0.80;;
18867;SDS011;9563;49.240;9.088;2022-10-16T10:22:30;4.50;;;1.10;;
18867;SDS011;9563;49.240;9.088;2022-10-16T10:28:10;8.60;;;1.23;;
18867;SDS011;9563;49.240;9.088;2022-10-16T10:30:51;2.08;;;1.10;;
18867;SDS011;9563;49.240;9.088;2022-10-16T10:33:25;2.70;;;0.80;;
18867;SDS011;9563;49.240;9.088;2022-10-16T10:36:00;3.72;;;0.85;;
18867;SDS011;9563;49.240;9.088;2022-10-16T10:38:41;4.03;;;1.00;;
18867;SDS011;9563;49.240;9.088;2022-10-16T10:41:25;1.70;;;1.08;;
18867;SDS011;9563;49.240;9.088;2022-10-16T10:44:07;3.40;;;1.65;;
18867;SDS011;9563;49.240;9.088;2022-10-16T10:46:42;3.53;;;1.50;;
18867;SDS011;9563;49.240;9.088;2022-10-16T10:49:17;2.28;;;0.98;;
18867;SDS011;9563;49.240;9.088;2022-10-16T10:51:58;3.10;;;1.17;;
18867;SDS011;9563;49.240;9.088;2022-10-16T10:54:38;2.17;;;1.13;;
18867;SDS011;9563;49.240;9.088;2022-10-16T10:57:17;2.63;;;0.98;;
18867;SDS011;9563;49.240;9.088;2022-10-16T10:59:57;1.20;;;0.80;;
18867;SDS011;9563;49.240;9.088;2022-10-16T11:02:35;4.30;;;0.80;;
18867;SDS011;9563;49.240;9.088;2022-10-16T11:05:14;3.10;;;1.00;;
18867;SDS011;9563;49.240;9.088;2022-10-16T11:08:07;1.35;;;0.90;;
18867;SDS011;9563;49.240;9.088;2022-10-16T11:10:44;3.55;;;1.00;;
18867;SDS011;9563;49.240;9.088;2022-10-16T11:13:19;4.30;;;1.23;;
18867;SDS011;9563;49.240;9.088;2022-10-16T11:15:55;6.95;;;1.17;;
18867;SDS011;9563;49.240;9.088;2022-10-16T11:18:26;2.92;;;1.08;;
18867;SDS011;9563;49.240;9.088;2022-10-16T11:20:59;2.33;;;0.77;;
18867;SDS011;9563;49.240;9.088;2022-10-16T11:23:33;3.38;;;1.10;;
18867;SDS011;9563;49.240;9.088;2022-10-16T11:26:08;6.18;;;1.10;;
18867;SDS011;9563;49.240;9.088;2022-10-16T11:28:40;3.95;;;0.88;;
18867;SDS011;9563;49.240;9.088;2022-10-16T11:31:13;2.30;;;1.10;;
18867;SDS011;9563;49.240;9.088;2022-10-16T11:33:45;3.90;;;1.00;;
18867;SDS011;9563;49.240;9.088;2022-10-16T11:36:17;1.75;;;1.05;;
18867;SDS011;9563;49.240;9.088;2022-10-16T11:38:51;5.53;;;1.00;;
18867;SDS011;9563;49.240;9.088;2022-10-16T11:41:26;4.75;;;0.90;;
18867;SDS011;9563;49.240;9.088;2022-10-16T11:47:01;3.08;;;0.80;;
18867;SDS011;9563;49.240;9.088;2022-10-16T11:49:34;6.88;;;0.82;;
18867;SDS011;9563;49.240;9.088;2022-10-16T11:52:06;1.75;;;0.80;;
18867;SDS011;9563;49.240;9.088;2022-10-16T11:54:39;3.03;;;0.85;;
18867;SDS011;9563;49.240;9.088;2022-10-16T11:57:13;2.20;;;1.08;;
18867;SDS011;9563;49.240;9.088;2022-10-16T11:59:46;2.13;;;0.90;;
18867;SDS011;9563;49.240;9.088;2022-10-16T12:02:28;1.65;;;0.88;;
18867;SDS011;9563;49.240;9.088;2022-10-16T12:05:14;5.18;;;0.80;;
18867;SDS011;9563;49.240;9.088;2022-10-16T12:07:49;4.88;;;0.80;;
18867;SDS011;9563;49.240;9.088;2022-10-16T12:10:24;1.58;;;1.00;;
18867;SDS011;9563;49.240;9.088;2022-10-16T12:12:56;2.25;;;0.95;;
18867;SDS011;9563;49.240;9.088;2022-10-16T12:15:24;1.52;;;1.10;;
18867;SDS011;9563;49.240;9.088;2022-10-16T12:17:52;6.00;;;1.15;;
18867;SDS011;9563;49.240;9.088;2022-10-16T12:20:21;2.63;;;0.80;;
18867;SDS011;9563;49.240;9.088;2022-10-16T12:22:52;2.10;;;1.02;;
18867;SDS011;9563;49.240;9.088;2022-10-16T12:25:23;6.82;;;0.90;;
18867;SDS011;9563;49.240;9.088;2022-10-16T12:27:55;4.50;;;1.10;;
18867;SDS011;9563;49.240;9.088;2022-10-16T12:30:28;4.25;;;0.93;;
18867;SDS011;9563;49.240;9.088;2022-10-16T12:32:57;6.63;;;1.20;;
18867;SDS011;9563;49.240;9.088;2022-10-16T12:35:27;4.70;;;1.10;;
18867;SDS011;9563;49.240;9.088;2022-10-16T12:38:04;2.50;;;1.17;;
18867;SDS011;9563;49.240;9.088;2022-10-16T12:40:41;3.67;;;1.23;;
18867;SDS011;9563;49.240;9.088;2022-10-16T12:46:04;7.03;;;1.13;;
18867;SDS011;9563;49.240;9.088;2022-10-16T12:48:46;2.17;;;0.90;;
18867;SDS011;9563;49.240;9.088;2022-10-16T12:51:22;0.95;;;0.75;;
18867;SDS011;9563;49.240;9.088;2022-10-16T12:54:00;2.55;;;0.80;;
18867;SDS011;9563;49.240;9.088;2022-10-16T12:56:30;3.83;;;1.30;;
18867;SDS011;9563;49.240;9.088;2022-10-16T12:59:09;4.95;;;1.00;;
18867;SDS011;9563;49.240;9.088;2022-10-16T13:01:52;2.80;;;1.13;;
18867;SDS011;9563;49.240;9.088;2022-10-16T13:04:36;1.42;;;1.05;;
18867;SDS011;9563;49.240;9.088;2022-10-16T13:07:30;12.68;;;1.67;;
18867;SDS011;9563;49.240;9.088;2022-10-16T13:10:09;4.18;;;1.42;;
18867;SDS011;9563;49.240;9.088;2022-10-16T13:12:46;1.63;;;0.90;;
18867;SDS011;9563;49.240;9.088;2022-10-16T13:18:19;0.93;;;0.85;;
18867;SDS011;9563;49.240;9.088;2022-10-16T13:20:58;1.70;;;0.88;;
18867;SDS011;9563;49.240;9.088;2022-10-16T13:23:35;4.55;;;1.40;;
18867;SDS011;9563;49.240;9.088;2022-10-16T13:26:11;2.13;;;0.80;;
18867;SDS011;9563;49.240;9.088;2022-10-16T13:28:46;3.75;;;1.17;;
18867;SDS011;9563;49.240;9.088;2022-10-16T13:31:17;4.30;;;0.70;;
18867;SDS011;9563;49.240;9.088;2022-10-16T13:33:47;1.25;;;1.08;;
18867;SDS011;9563;49.240;9.088;2022-10-16T13:36:20;2.20;;;0.90;;
18867;SDS011;9563;49.240;9.088;2022-10-16T13:38:57;3.50;;;0.85;;
18867;SDS011;9563;49.240;9.088;2022-10-16T13:41:27;1.98;;;1.17;;
18867;SDS011;9563;49.240;9.088;2022-10-16T13:43:53;1.25;;;1.05;;
18867;SDS011;9563;49.240;9.088;2022-10-16T13:46:24;4.07;;;1.30;;
18867;SDS011;9563;49.240;9.088;2022-10-16T13:48:56;2.42;;;1.17;;
18867;SDS011;9563;49.240;9.088;2022-10-16T13:51:23;1.95;;;1.00;;
18867;SDS011;9563;49.240;9.088;2022-10-16T13:53:50;2.17;;;1.35;;
18867;SDS011;9563;49.240;9.088;2022-10-16T13:56:19;3.20;;;0.80;;
18867;SDS011;9563;49.240;9.088;2022-10-16T13:58:57;3.88;;;1.00;;
18867;SDS011;9563;49.240;9.088;2022-10-16T14:01:27;1.98;;;1.10;;
18867;SDS011;9563;49.240;9.088;2022-10-16T14:04:00;2.15;;;1.17;;
18867;SDS011;9563;49.240;9.088;2022-10-16T14:06:30;5.18;;;1.10;;
18867;SDS011;9563;49.240;9.088;2022-10-16T14:08:59;2.60;;;1.27;;
18867;SDS011;9563;49.240;9.088;2022-10-16T14:11:31;3.97;;;1.10;;
18867;SDS011;9563;49.240;9.088;2022-10-16T14:13:59;1.70;;;1.17;;
18867;SDS011;9563;49.240;9.088;2022-10-16T14:16:30;3.80;;;1.50;;
18867;SDS011;9563;49.240;9.088;2022-10-16T14:18:58;3.08;;;1.70;;
18867;SDS011;9563;49.240;9.088;2022-10-16T14:21:27;2.00;;;1.40;;
18867;SDS011;9563;49.240;9.088;2022-10-16T14:23:55;1.88;;;1.35;;
18867;SDS011;9563;49.240;9.088;2022-10-16T14:26:22;3.95;;;1.23;;
18867;SDS011;9563;49.240;9.088;2022-10-16T14:29:03;3.13;;;1.10;;
18867;SDS011;9563;49.240;9.088;2022-10-16T14:31:39;5.45;;;1.25;;
18867;SDS011;9563;49.240;9.088;2022-10-16T14:36:49;1.73;;;1.25;;
18867;SDS011;9563;49.240;9.088;2022-10-16T14:39:17;2.53;;;1.33;;
18867;SDS011;9563;49.240;9.088;2022-10-16T14:41:46;3.33;;;1.42;;
18867;SDS011;9563;49.240;9.088;2022-10-16T14:44:15;1.95;;;1.15;;
18867;SDS011;9563;49.240;9.088;2022-10-16T14:46:45;2.95;;;1.10;;
18867;SDS011;9563;49.240;9.088;2022-10-16T14:49:14;1.70;;;1.20;;
18867;SDS011;9563;49.240;9.088;2022-10-16T14:51:44;4.88;;;1.33;;
18867;SDS011;9563;49.240;9.088;2022-10-16T14:54:11;1.20;;;1.08;;
18867;SDS011;9563;49.240;9.088;2022-10-16T14:56:43;3.88;;;1.42;;
18867;SDS011;9563;49.240;9.088;2022-10-16T14:59:14;1.58;;;1.20;;
18867;SDS011;9563;49.240;9.088;2022-10-16T15:01:46;1.35;;;1.17;;
18867;SDS011;9563;49.240;9.088;2022-10-16T15:04:13;4.63;;;1.30;;
18867;SDS011;9563;49.240;9.088;2022-10-16T15:06:40;3.80;;;1.75;;
18867;SDS011;9563;49.240;9.088;2022-10-16T15:09:07;5.15;;;1.73;;
18867;SDS011;9563;49.240;9.088;2022-10-16T15:11:34;2.42;;;1.67;;
18867;SDS011;9563;49.240;9.088;2022-10-16T15:14:01;3.17;;;1.90;;
18867;SDS011;9563;49.240;9.088;2022-10-16T15:16:29;3.05;;;1.80;;
18867;SDS011;9563;49.240;9.088;2022-10-16T15:18:58;3.22;;;1.60;;
18867;SDS011;9563;49.240;9.088;2022-10-16T15:21:25;3.78;;;1.70;;
18867;SDS011;9563;49.240;9.088;2022-10-16T15:23:54;2.95;;;1.95;;
18867;SDS011;9563;49.240;9.088;2022-10-16T15:26:22;6.43;;;2.17;;
18867;SDS011;9563;49.240;9.088;2022-10-16T15:28:49;4.43;;;2.28;;
18867;SDS011;9563;49.240;9.088;2022-10-16T15:31:16;4.38;;;2.08;;
18867;SDS011;9563;49.240;9.088;2022-10-16T15:33:43;2.83;;;2.00;;
18867;SDS011;9563;49.240;9.088;2022-10-16T15:36:17;6.25;;;2.70;;